This is the latest recevied weather packets stored in our database for station/object BMCB-5. If no packets are shown the sender has not sent any weather packets the latest 10 day(s).
| Time | Temp. | Humidity | Pressure | Rain* | Wind** | Luminosity | Snow |
|---|---|---|---|---|---|---|---|
| 1777857061 | 12.22° C | 99% | 1016.9 hPa | 0.51 mm | - | 0 W/m² | - |
| 1777855859 | 12.78° C | 98% | 1016.7 hPa | 1.02 mm | - | 0 W/m² | - |
| 1777851068 | 13.89° C | 99% | 1016.9 hPa | 0.25 mm | - | 0 W/m² | - |
| 1777842671 | 12.78° C | 99% | 1017.4 hPa | 0 mm | - | 0 W/m² | - |
| 1777837270 | 13.33° C | 98% | 1017 hPa | 0 mm | - | 0 W/m² | - |
| 1777833067 | 14.44° C | 97% | 1016.5 hPa | 0 mm | - | 20 W/m² | - |
| 1777832472 | 14.44° C | 97% | 1016.6 hPa | 0 mm | - | 30 W/m² | - |
| 1777830068 | 14.44° C | 98% | 1016.5 hPa | 0.51 mm | - | 100 W/m² | - |
| 1777829467 | 14.44° C | 98% | 1016.5 hPa | 0.51 mm | - | 166 W/m² | - |
| 1777825863 | 13.89° C | 96% | 1016.6 hPa | 3.05 mm | - | 8 W/m² | - |
| 1777822265 | 17.22° C | 84% | 1016 hPa | 0 mm | - | 60 W/m² | - |
| 1777819262 | 18.33° C | 83% | 1016.1 hPa | 0 mm | - | 230 W/m² | - |
| 1777818064 | 17.22° C | 86% | 1016.2 hPa | 0 mm | - | 162 W/m² | - |
| 1777809062 | 15° C | 93% | 1017.1 hPa | 0 mm | - | 136 W/m² | - |
| 1777806663 | 15° C | 96% | 1017 hPa | 0.25 mm | - | 126 W/m² | - |
| 1777801859 | 14.44° C | 99% | 1017.1 hPa | 1.27 mm | - | 144 W/m² | - |
| 1777798259 | 14.44° C | 99% | 1017.3 hPa | 2.29 mm | - | 70 W/m² | - |
| 1777797661 | 14.44° C | 99% | 1017.2 hPa | 2.29 mm | - | 70 W/m² | - |
| 1777797058 | 14.44° C | 98% | 1017 hPa | 1.78 mm | - | 30 W/m² | - |
| 1777793461 | 14.44° C | 97% | 1015.4 hPa | 0.51 mm | - | 58 W/m² | - |
| 1777792858 | 14.44° C | 96% | 1015.3 hPa | 0.51 mm | - | 50 W/m² | - |
| 1777790459 | 15° C | 94% | 1014.9 hPa | 0 mm | - | 56 W/m² | - |
| 1777780857 | 13.89° C | 99% | 1014.7 hPa | 0 mm | - | 0 W/m² | - |
| 1777776060 | 13.89° C | 98% | 1014.8 hPa | 0 mm | - | 0 W/m² | - |
| 1777775459 | 13.89° C | 98% | 1015 hPa | 0 mm | - | 0 W/m² | - |
* Rain latest hour (hover to see other rain measurements)
** Current wind speed in m/s (hover to see current wind gust speed)